sensor_id;sensor_type;location;lat;lon;timestamp;P1;durP1;ratioP1;P2;durP2;ratioP2
21018;SDS011;10667;51.056;3.732;2023-02-28T00:00:12;9.55;;;6.25;;
21018;SDS011;10667;51.056;3.732;2023-02-28T00:02:39;11.32;;;7.50;;
21018;SDS011;10667;51.056;3.732;2023-02-28T00:05:06;10.23;;;7.00;;
21018;SDS011;10667;51.056;3.732;2023-02-28T00:07:33;10.57;;;6.38;;
21018;SDS011;10667;51.056;3.732;2023-02-28T00:10:00;13.02;;;6.63;;
21018;SDS011;10667;51.056;3.732;2023-02-28T00:12:26;12.60;;;7.22;;
21018;SDS011;10667;51.056;3.732;2023-02-28T00:14:52;11.88;;;7.25;;
21018;SDS011;10667;51.056;3.732;2023-02-28T00:17:18;9.95;;;6.60;;
21018;SDS011;10667;51.056;3.732;2023-02-28T00:19:49;11.15;;;7.13;;
21018;SDS011;10667;51.056;3.732;2023-02-28T00:22:16;13.10;;;6.95;;
21018;SDS011;10667;51.056;3.732;2023-02-28T00:24:43;10.98;;;7.28;;
21018;SDS011;10667;51.056;3.732;2023-02-28T00:27:10;11.88;;;7.25;;
21018;SDS011;10667;51.056;3.732;2023-02-28T00:29:36;10.45;;;7.18;;
21018;SDS011;10667;51.056;3.732;2023-02-28T00:32:02;9.55;;;7.47;;
21018;SDS011;10667;51.056;3.732;2023-02-28T00:34:28;9.50;;;7.55;;
21018;SDS011;10667;51.056;3.732;2023-02-28T00:36:54;10.70;;;8.00;;
21018;SDS011;10667;51.056;3.732;2023-02-28T00:39:20;10.18;;;7.32;;
21018;SDS011;10667;51.056;3.732;2023-02-28T00:41:45;10.80;;;7.15;;
21018;SDS011;10667;51.056;3.732;2023-02-28T00:44:11;11.45;;;7.65;;
21018;SDS011;10667;51.056;3.732;2023-02-28T00:46:37;12.10;;;8.10;;
21018;SDS011;10667;51.056;3.732;2023-02-28T00:49:02;11.75;;;7.82;;
21018;SDS011;10667;51.056;3.732;2023-02-28T00:51:28;13.52;;;7.57;;
21018;SDS011;10667;51.056;3.732;2023-02-28T00:53:54;11.35;;;7.70;;
21018;SDS011;10667;51.056;3.732;2023-02-28T00:56:20;11.23;;;7.93;;
21018;SDS011;10667;51.056;3.732;2023-02-28T00:58:45;11.73;;;8.30;;
21018;SDS011;10667;51.056;3.732;2023-02-28T01:01:11;14.43;;;8.45;;
21018;SDS011;10667;51.056;3.732;2023-02-28T01:03:37;11.95;;;8.45;;
21018;SDS011;10667;51.056;3.732;2023-02-28T01:06:03;11.65;;;8.13;;
21018;SDS011;10667;51.056;3.732;2023-02-28T01:08:29;10.05;;;7.68;;
21018;SDS011;10667;51.056;3.732;2023-02-28T01:10:55;14.45;;;8.48;;
21018;SDS011;10667;51.056;3.732;2023-02-28T01:13:21;15.32;;;8.05;;
21018;SDS011;10667;51.056;3.732;2023-02-28T01:15:51;14.75;;;7.75;;
21018;SDS011;10667;51.056;3.732;2023-02-28T01:18:20;12.65;;;7.93;;
21018;SDS011;10667;51.056;3.732;2023-02-28T01:20:47;15.23;;;9.88;;
21018;SDS011;10667;51.056;3.732;2023-02-28T01:23:13;10.55;;;8.52;;
21018;SDS011;10667;51.056;3.732;2023-02-28T01:25:39;12.65;;;8.45;;
21018;SDS011;10667;51.056;3.732;2023-02-28T01:28:05;11.43;;;8.02;;
21018;SDS011;10667;51.056;3.732;2023-02-28T01:30:31;12.18;;;7.80;;
21018;SDS011;10667;51.056;3.732;2023-02-28T01:32:57;10.80;;;7.93;;
21018;SDS011;10667;51.056;3.732;2023-02-28T01:35:23;12.15;;;8.63;;
21018;SDS011;10667;51.056;3.732;2023-02-28T01:37:49;11.13;;;8.15;;
21018;SDS011;10667;51.056;3.732;2023-02-28T01:40:15;9.30;;;7.93;;
21018;SDS011;10667;51.056;3.732;2023-02-28T01:42:41;15.43;;;8.63;;
21018;SDS011;10667;51.056;3.732;2023-02-28T01:47:52;13.50;;;8.52;;
21018;SDS011;10667;51.056;3.732;2023-02-28T01:50:26;13.27;;;9.30;;
21018;SDS011;10667;51.056;3.732;2023-02-28T01:52:55;11.98;;;8.23;;
21018;SDS011;10667;51.056;3.732;2023-02-28T01:55:25;12.98;;;8.18;;
21018;SDS011;10667;51.056;3.732;2023-02-28T01:57:55;10.88;;;8.00;;
21018;SDS011;10667;51.056;3.732;2023-02-28T02:00:24;10.98;;;8.40;;
21018;SDS011;10667;51.056;3.732;2023-02-28T02:02:53;13.60;;;7.85;;
21018;SDS011;10667;51.056;3.732;2023-02-28T02:05:22;10.70;;;7.82;;
21018;SDS011;10667;51.056;3.732;2023-02-28T02:07:53;13.82;;;9.05;;
21018;SDS011;10667;51.056;3.732;2023-02-28T02:10:30;12.30;;;8.68;;
21018;SDS011;10667;51.056;3.732;2023-02-28T02:18:31;13.30;;;8.80;;
21018;SDS011;10667;51.056;3.732;2023-02-28T02:26:52;8.90;;;8.00;;
21018;SDS011;10667;51.056;3.732;2023-02-28T02:40:20;12.57;;;8.68;;
21018;SDS011;10667;51.056;3.732;2023-02-28T02:45:45;14.02;;;9.35;;
21018;SDS011;10667;51.056;3.732;2023-02-28T02:48:17;10.23;;;8.60;;
21018;SDS011;10667;51.056;3.732;2023-02-28T02:50:50;10.55;;;8.75;;
21018;SDS011;10667;51.056;3.732;2023-02-28T02:53:21;13.32;;;8.45;;
21018;SDS011;10667;51.056;3.732;2023-02-28T02:55:57;12.95;;;9.00;;
21018;SDS011;10667;51.056;3.732;2023-02-28T02:58:26;13.10;;;8.85;;
21018;SDS011;10667;51.056;3.732;2023-02-28T03:00:57;14.80;;;8.93;;
21018;SDS011;10667;51.056;3.732;2023-02-28T03:03:25;10.77;;;8.48;;
21018;SDS011;10667;51.056;3.732;2023-02-28T03:05:59;14.52;;;8.85;;
21018;SDS011;10667;51.056;3.732;2023-02-28T03:08:26;11.80;;;8.57;;
21018;SDS011;10667;51.056;3.732;2023-02-28T03:10:57;14.68;;;8.80;;
21018;SDS011;10667;51.056;3.732;2023-02-28T03:33:18;12.85;;;9.52;;
21018;SDS011;10667;51.056;3.732;2023-02-28T03:36:02;14.50;;;9.07;;
21018;SDS011;10667;51.056;3.732;2023-02-28T03:38:44;14.43;;;9.73;;
21018;SDS011;10667;51.056;3.732;2023-02-28T03:41:32;14.25;;;9.73;;
21018;SDS011;10667;51.056;3.732;2023-02-28T03:44:05;14.27;;;9.38;;
21018;SDS011;10667;51.056;3.732;2023-02-28T03:46:40;16.00;;;9.15;;
21018;SDS011;10667;51.056;3.732;2023-02-28T03:49:23;18.13;;;9.80;;
21018;SDS011;10667;51.056;3.732;2023-02-28T03:51:52;14.43;;;9.07;;
21018;SDS011;10667;51.056;3.732;2023-02-28T03:55:03;13.75;;;8.98;;
21018;SDS011;10667;51.056;3.732;2023-02-28T03:57:15;14.05;;;8.73;;
21018;SDS011;10667;51.056;3.732;2023-02-28T03:59:49;14.80;;;9.73;;
21018;SDS011;10667;51.056;3.732;2023-02-28T04:02:22;13.73;;;9.15;;
21018;SDS011;10667;51.056;3.732;2023-02-28T04:04:48;13.82;;;8.38;;
21018;SDS011;10667;51.056;3.732;2023-02-28T04:07:14;11.55;;;8.57;;
21018;SDS011;10667;51.056;3.732;2023-02-28T04:09:40;12.48;;;8.75;;
21018;SDS011;10667;51.056;3.732;2023-02-28T04:12:06;16.52;;;9.43;;
21018;SDS011;10667;51.056;3.732;2023-02-28T04:14:32;14.07;;;9.48;;
21018;SDS011;10667;51.056;3.732;2023-02-28T04:16:57;11.82;;;8.98;;
21018;SDS011;10667;51.056;3.732;2023-02-28T04:19:23;14.63;;;9.00;;
21018;SDS011;10667;51.056;3.732;2023-02-28T04:21:50;14.18;;;8.68;;
21018;SDS011;10667;51.056;3.732;2023-02-28T04:24:18;16.70;;;8.90;;
21018;SDS011;10667;51.056;3.732;2023-02-28T04:26:46;13.98;;;9.25;;
21018;SDS011;10667;51.056;3.732;2023-02-28T04:29:18;14.85;;;9.10;;
21018;SDS011;10667;51.056;3.732;2023-02-28T04:31:51;15.82;;;9.20;;
21018;SDS011;10667;51.056;3.732;2023-02-28T04:34:18;12.25;;;8.55;;
21018;SDS011;10667;51.056;3.732;2023-02-28T04:36:45;13.88;;;9.63;;
21018;SDS011;10667;51.056;3.732;2023-02-28T04:39:20;13.30;;;8.70;;
21018;SDS011;10667;51.056;3.732;2023-02-28T04:41:46;15.95;;;9.65;;
21018;SDS011;10667;51.056;3.732;2023-02-28T04:44:13;12.90;;;8.70;;
21018;SDS011;10667;51.056;3.732;2023-02-28T04:46:39;14.85;;;9.23;;
21018;SDS011;10667;51.056;3.732;2023-02-28T04:49:05;16.08;;;9.95;;
21018;SDS011;10667;51.056;3.732;2023-02-28T04:51:31;15.43;;;11.50;;
21018;SDS011;10667;51.056;3.732;2023-02-28T04:53:56;14.70;;;9.77;;
21018;SDS011;10667;51.056;3.732;2023-02-28T04:56:22;15.32;;;9.73;;
21018;SDS011;10667;51.056;3.732;2023-02-28T04:58:48;13.13;;;9.38;;
21018;SDS011;10667;51.056;3.732;2023-02-28T05:01:20;15.68;;;8.95;;
21018;SDS011;10667;51.056;3.732;2023-02-28T05:03:54;15.02;;;9.02;;
21018;SDS011;10667;51.056;3.732;2023-02-28T05:06:21;14.90;;;8.95;;
21018;SDS011;10667;51.056;3.732;2023-02-28T05:08:49;15.15;;;9.15;;
21018;SDS011;10667;51.056;3.732;2023-02-28T05:11:17;12.55;;;8.70;;
21018;SDS011;10667;51.056;3.732;2023-02-28T05:13:45;14.32;;;9.48;;
21018;SDS011;10667;51.056;3.732;2023-02-28T05:16:12;12.38;;;9.43;;
21018;SDS011;10667;51.056;3.732;2023-02-28T05:18:38;19.05;;;9.93;;
21018;SDS011;10667;51.056;3.732;2023-02-28T05:21:04;17.80;;;9.45;;
21018;SDS011;10667;51.056;3.732;2023-02-28T05:23:30;15.88;;;8.82;;
21018;SDS011;10667;51.056;3.732;2023-02-28T05:25:56;15.43;;;8.52;;
21018;SDS011;10667;51.056;3.732;2023-02-28T05:28:22;17.42;;;8.82;;
21018;SDS011;10667;51.056;3.732;2023-02-28T05:30:48;13.00;;;8.30;;
21018;SDS011;10667;51.056;3.732;2023-02-28T05:33:13;15.45;;;9.20;;
21018;SDS011;10667;51.056;3.732;2023-02-28T05:35:40;11.55;;;8.30;;
21018;SDS011;10667;51.056;3.732;2023-02-28T05:38:07;14.50;;;8.30;;
21018;SDS011;10667;51.056;3.732;2023-02-28T05:40:33;11.70;;;8.30;;
21018;SDS011;10667;51.056;3.732;2023-02-28T05:42:59;13.60;;;8.50;;
21018;SDS011;10667;51.056;3.732;2023-02-28T05:45:25;11.52;;;8.38;;
21018;SDS011;10667;51.056;3.732;2023-02-28T05:47:54;18.25;;;10.30;;
21018;SDS011;10667;51.056;3.732;2023-02-28T05:50:20;17.20;;;8.48;;
21018;SDS011;10667;51.056;3.732;2023-02-28T05:52:52;15.07;;;8.50;;
21018;SDS011;10667;51.056;3.732;2023-02-28T05:55:18;12.05;;;8.57;;
21018;SDS011;10667;51.056;3.732;2023-02-28T05:57:44;12.48;;;8.73;;
21018;SDS011;10667;51.056;3.732;2023-02-28T06:00:10;13.50;;;9.43;;
21018;SDS011;10667;51.056;3.732;2023-02-28T06:02:38;12.23;;;8.75;;
21018;SDS011;10667;51.056;3.732;2023-02-28T06:05:04;15.55;;;9.05;;
21018;SDS011;10667;51.056;3.732;2023-02-28T06:07:31;19.23;;;8.50;;
21018;SDS011;10667;51.056;3.732;2023-02-28T06:09:56;15.70;;;9.38;;
21018;SDS011;10667;51.056;3.732;2023-02-28T06:12:22;15.20;;;9.57;;
21018;SDS011;10667;51.056;3.732;2023-02-28T06:14:48;13.57;;;9.60;;
21018;SDS011;10667;51.056;3.732;2023-02-28T06:17:13;16.15;;;9.15;;
21018;SDS011;10667;51.056;3.732;2023-02-28T06:19:39;13.77;;;9.65;;
21018;SDS011;10667;51.056;3.732;2023-02-28T06:22:06;13.48;;;9.07;;
21018;SDS011;10667;51.056;3.732;2023-02-28T06:24:32;12.48;;;9.50;;
21018;SDS011;10667;51.056;3.732;2023-02-28T06:26:59;16.58;;;10.15;;
21018;SDS011;10667;51.056;3.732;2023-02-28T06:29:30;15.88;;;9.13;;
21018;SDS011;10667;51.056;3.732;2023-02-28T06:31:56;17.42;;;10.30;;
21018;SDS011;10667;51.056;3.732;2023-02-28T06:34:22;17.17;;;10.82;;
21018;SDS011;10667;51.056;3.732;2023-02-28T06:36:49;13.57;;;9.27;;
21018;SDS011;10667;51.056;3.732;2023-02-28T06:39:16;14.07;;;9.13;;
21018;SDS011;10667;51.056;3.732;2023-02-28T06:41:42;14.95;;;9.50;;
21018;SDS011;10667;51.056;3.732;2023-02-28T06:44:15;16.35;;;9.35;;
21018;SDS011;10667;51.056;3.732;2023-02-28T06:46:42;13.52;;;9.68;;
21018;SDS011;10667;51.056;3.732;2023-02-28T06:49:09;19.63;;;9.40;;
21018;SDS011;10667;51.056;3.732;2023-02-28T06:51:36;15.95;;;9.27;;
21018;SDS011;10667;51.056;3.732;2023-02-28T06:54:04;15.43;;;10.10;;
21018;SDS011;10667;51.056;3.732;2023-02-28T06:56:30;14.55;;;9.07;;
21018;SDS011;10667;51.056;3.732;2023-02-28T06:58:56;18.15;;;8.68;;
21018;SDS011;10667;51.056;3.732;2023-02-28T07:01:22;18.20;;;8.18;;
21018;SDS011;10667;51.056;3.732;2023-02-28T07:03:49;17.83;;;9.50;;
21018;SDS011;10667;51.056;3.732;2023-02-28T07:06:17;14.45;;;8.55;;
21018;SDS011;10667;51.056;3.732;2023-02-28T07:08:47;18.08;;;8.40;;
21018;SDS011;10667;51.056;3.732;2023-02-28T07:11:14;16.20;;;9.27;;
21018;SDS011;10667;51.056;3.732;2023-02-28T07:13:39;12.18;;;8.55;;
21018;SDS011;10667;51.056;3.732;2023-02-28T07:16:06;16.63;;;8.73;;
21018;SDS011;10667;51.056;3.732;2023-02-28T07:18:34;12.23;;;7.82;;
21018;SDS011;10667;51.056;3.732;2023-02-28T07:21:05;18.35;;;9.38;;
21018;SDS011;10667;51.056;3.732;2023-02-28T07:23:32;17.33;;;9.00;;
21018;SDS011;10667;51.056;3.732;2023-02-28T07:25:58;14.65;;;8.05;;
21018;SDS011;10667;51.056;3.732;2023-02-28T07:28:24;18.00;;;7.88;;
21018;SDS011;10667;51.056;3.732;2023-02-28T07:30:50;24.75;;;8.20;;
21018;SDS011;10667;51.056;3.732;2023-02-28T07:33:16;11.48;;;8.23;;
21018;SDS011;10667;51.056;3.732;2023-02-28T07:35:42;11.93;;;8.13;;
21018;SDS011;10667;51.056;3.732;2023-02-28T07:38:08;9.88;;;7.53;;
21018;SDS011;10667;51.056;3.732;2023-02-28T07:40:34;11.50;;;7.00;;
21018;SDS011;10667;51.056;3.732;2023-02-28T07:43:00;10.43;;;7.47;;
21018;SDS011;10667;51.056;3.732;2023-02-28T07:45:26;10.05;;;7.00;;
21018;SDS011;10667;51.056;3.732;2023-02-28T07:47:53;12.20;;;6.97;;
21018;SDS011;10667;51.056;3.732;2023-02-28T07:50:20;8.82;;;6.75;;
21018;SDS011;10667;51.056;3.732;2023-02-28T07:52:45;8.68;;;6.40;;
21018;SDS011;10667;51.056;3.732;2023-02-28T07:55:11;11.65;;;7.22;;
21018;SDS011;10667;51.056;3.732;2023-02-28T07:57:37;8.18;;;5.57;;
21018;SDS011;10667;51.056;3.732;2023-02-28T08:00:03;10.35;;;6.35;;
21018;SDS011;10667;51.056;3.732;2023-02-28T08:02:30;7.78;;;5.75;;
21018;SDS011;10667;51.056;3.732;2023-02-28T08:04:55;8.30;;;5.68;;
21018;SDS011;10667;51.056;3.732;2023-02-28T08:07:21;10.85;;;5.72;;
21018;SDS011;10667;51.056;3.732;2023-02-28T08:09:47;12.60;;;6.13;;
21018;SDS011;10667;51.056;3.732;2023-02-28T08:12:12;7.57;;;5.43;;
21018;SDS011;10667;51.056;3.732;2023-02-28T08:14:38;8.45;;;5.60;;
21018;SDS011;10667;51.056;3.732;2023-02-28T08:17:04;13.13;;;6.03;;
21018;SDS011;10667;51.056;3.732;2023-02-28T08:19:30;12.23;;;6.03;;
21018;SDS011;10667;51.056;3.732;2023-02-28T08:21:57;10.35;;;5.60;;
21018;SDS011;10667;51.056;3.732;2023-02-28T08:24:23;12.82;;;5.22;;
21018;SDS011;10667;51.056;3.732;2023-02-28T08:26:49;13.02;;;5.80;;
21018;SDS011;10667;51.056;3.732;2023-02-28T08:29:15;10.60;;;6.25;;
21018;SDS011;10667;51.056;3.732;2023-02-28T08:31:41;9.07;;;5.95;;
21018;SDS011;10667;51.056;3.732;2023-02-28T08:34:08;7.00;;;5.45;;
21018;SDS011;10667;51.056;3.732;2023-02-28T08:36:35;13.65;;;6.38;;
21018;SDS011;10667;51.056;3.732;2023-02-28T08:39:02;11.32;;;5.68;;
21018;SDS011;10667;51.056;3.732;2023-02-28T08:41:28;11.93;;;6.60;;
21018;SDS011;10667;51.056;3.732;2023-02-28T08:43:54;11.10;;;7.57;;
21018;SDS011;10667;51.056;3.732;2023-02-28T08:46:20;9.02;;;6.28;;
21018;SDS011;10667;51.056;3.732;2023-02-28T08:48:46;11.20;;;7.03;;
21018;SDS011;10667;51.056;3.732;2023-02-28T08:51:16;14.38;;;6.57;;
21018;SDS011;10667;51.056;3.732;2023-02-28T08:53:51;16.27;;;6.93;;
21018;SDS011;10667;51.056;3.732;2023-02-28T08:56:18;11.40;;;6.35;;
21018;SDS011;10667;51.056;3.732;2023-02-28T08:58:45;8.10;;;6.20;;
21018;SDS011;10667;51.056;3.732;2023-02-28T09:01:16;9.77;;;6.88;;
21018;SDS011;10667;51.056;3.732;2023-02-28T09:03:47;10.30;;;7.05;;
21018;SDS011;10667;51.056;3.732;2023-02-28T09:06:14;14.80;;;6.93;;
21018;SDS011;10667;51.056;3.732;2023-02-28T09:08:40;15.35;;;7.90;;
21018;SDS011;10667;51.056;3.732;2023-02-28T09:11:07;18.23;;;7.32;;
21018;SDS011;10667;51.056;3.732;2023-02-28T09:13:34;13.88;;;7.43;;
21018;SDS011;10667;51.056;3.732;2023-02-28T09:16:00;17.05;;;8.15;;
21018;SDS011;10667;51.056;3.732;2023-02-28T09:18:27;12.02;;;8.57;;
21018;SDS011;10667;51.056;3.732;2023-02-28T09:20:53;15.98;;;8.10;;
21018;SDS011;10667;51.056;3.732;2023-02-28T09:23:18;12.77;;;7.68;;
21018;SDS011;10667;51.056;3.732;2023-02-28T09:25:45;9.07;;;6.50;;
21018;SDS011;10667;51.056;3.732;2023-02-28T09:28:12;13.85;;;6.97;;
21018;SDS011;10667;51.056;3.732;2023-02-28T09:30:40;14.63;;;6.45;;
21018;SDS011;10667;51.056;3.732;2023-02-28T09:33:06;12.82;;;5.97;;
21018;SDS011;10667;51.056;3.732;2023-02-28T09:35:32;14.18;;;6.10;;
21018;SDS011;10667;51.056;3.732;2023-02-28T09:37:58;14.93;;;6.93;;
21018;SDS011;10667;51.056;3.732;2023-02-28T09:40:24;10.35;;;6.10;;
21018;SDS011;10667;51.056;3.732;2023-02-28T09:42:52;8.25;;;5.28;;
21018;SDS011;10667;51.056;3.732;2023-02-28T09:45:28;10.13;;;5.95;;
21018;SDS011;10667;51.056;3.732;2023-02-28T09:47:59;7.70;;;5.72;;
21018;SDS011;10667;51.056;3.732;2023-02-28T09:50:36;9.43;;;5.25;;
21018;SDS011;10667;51.056;3.732;2023-02-28T09:55:53;13.25;;;6.15;;
21018;SDS011;10667;51.056;3.732;2023-02-28T09:58:58;13.48;;;6.30;;
21018;SDS011;10667;51.056;3.732;2023-02-28T10:07:37;9.90;;;6.03;;
21018;SDS011;10667;51.056;3.732;2023-02-28T10:12:55;11.82;;;7.82;;
21018;SDS011;10667;51.056;3.732;2023-02-28T10:15:24;10.85;;;5.30;;
21018;SDS011;10667;51.056;3.732;2023-02-28T10:17:56;8.65;;;5.22;;
21018;SDS011;10667;51.056;3.732;2023-02-28T10:20:28;10.43;;;6.32;;
21018;SDS011;10667;51.056;3.732;2023-02-28T10:23:04;12.23;;;6.00;;
21018;SDS011;10667;51.056;3.732;2023-02-28T10:25:42;8.20;;;6.00;;
21018;SDS011;10667;51.056;3.732;2023-02-28T10:28:15;10.93;;;5.95;;
21018;SDS011;10667;51.056;3.732;2023-02-28T10:30:50;14.30;;;6.20;;
21018;SDS011;10667;51.056;3.732;2023-02-28T10:35:44;10.70;;;6.32;;
21018;SDS011;10667;51.056;3.732;2023-02-28T10:38:14;7.38;;;5.25;;
21018;SDS011;10667;51.056;3.732;2023-02-28T10:40:42;6.60;;;4.88;;
21018;SDS011;10667;51.056;3.732;2023-02-28T10:45:51;7.97;;;4.90;;
21018;SDS011;10667;51.056;3.732;2023-02-28T10:48:30;12.20;;;5.93;;
21018;SDS011;10667;51.056;3.732;2023-02-28T10:50:59;12.10;;;6.20;;
21018;SDS011;10667;51.056;3.732;2023-02-28T10:53:33;6.57;;;4.35;;
21018;SDS011;10667;51.056;3.732;2023-02-28T11:01:25;11.23;;;4.95;;
21018;SDS011;10667;51.056;3.732;2023-02-28T11:04:00;5.63;;;4.40;;
21018;SDS011;10667;51.056;3.732;2023-02-28T11:06:26;14.82;;;7.25;;
21018;SDS011;10667;51.056;3.732;2023-02-28T11:08:58;16.17;;;5.40;;
21018;SDS011;10667;51.056;3.732;2023-02-28T11:11:42;8.85;;;5.22;;
21018;SDS011;10667;51.056;3.732;2023-02-28T11:14:26;12.40;;;6.75;;
21018;SDS011;10667;51.056;3.732;2023-02-28T11:16:54;7.35;;;5.32;;
21018;SDS011;10667;51.056;3.732;2023-02-28T11:19:38;10.88;;;5.85;;
21018;SDS011;10667;51.056;3.732;2023-02-28T11:22:09;10.82;;;5.47;;
21018;SDS011;10667;51.056;3.732;2023-02-28T11:24:45;11.18;;;5.82;;
21018;SDS011;10667;51.056;3.732;2023-02-28T11:27:25;12.95;;;5.72;;
21018;SDS011;10667;51.056;3.732;2023-02-28T11:29:51;7.43;;;5.47;;
21018;SDS011;10667;51.056;3.732;2023-02-28T11:32:19;7.00;;;5.18;;
21018;SDS011;10667;51.056;3.732;2023-02-28T11:34:46;9.57;;;4.95;;
21018;SDS011;10667;51.056;3.732;2023-02-28T11:37:25;22.30;;;5.88;;
21018;SDS011;10667;51.056;3.732;2023-02-28T11:39:52;12.52;;;6.15;;
21018;SDS011;10667;51.056;3.732;2023-02-28T11:47:45;10.90;;;4.43;;
21018;SDS011;10667;51.056;3.732;2023-02-28T11:53:14;7.35;;;4.80;;
21018;SDS011;10667;51.056;3.732;2023-02-28T12:06:57;12.45;;;4.75;;
21018;SDS011;10667;51.056;3.732;2023-02-28T12:12:30;9.65;;;4.53;;
21018;SDS011;10667;51.056;3.732;2023-02-28T12:18:07;4.45;;;3.45;;
21018;SDS011;10667;51.056;3.732;2023-02-28T12:20:37;10.27;;;4.90;;
21018;SDS011;10667;51.056;3.732;2023-02-28T12:28:49;5.18;;;4.25;;
21018;SDS011;10667;51.056;3.732;2023-02-28T12:31:25;7.65;;;5.05;;
21018;SDS011;10667;51.056;3.732;2023-02-28T12:34:06;7.30;;;4.43;;
21018;SDS011;10667;51.056;3.732;2023-02-28T12:36:37;4.63;;;4.22;;
21018;SDS011;10667;51.056;3.732;2023-02-28T12:39:13;50.03;;;9.55;;
21018;SDS011;10667;51.056;3.732;2023-02-28T12:41:51;5.93;;;4.18;;
21018;SDS011;10667;51.056;3.732;2023-02-28T12:47:03;17.85;;;5.00;;
21018;SDS011;10667;51.056;3.732;2023-02-28T12:49:36;4.35;;;3.58;;
21018;SDS011;10667;51.056;3.732;2023-02-28T12:52:10;8.23;;;5.65;;
21018;SDS011;10667;51.056;3.732;2023-02-28T13:00:11;5.78;;;3.78;;
21018;SDS011;10667;51.056;3.732;2023-02-28T13:11:50;9.55;;;4.10;;
21018;SDS011;10667;51.056;3.732;2023-02-28T13:19:28;8.32;;;5.70;;
21018;SDS011;10667;51.056;3.732;2023-02-28T13:21:57;8.90;;;6.00;;
21018;SDS011;10667;51.056;3.732;2023-02-28T13:27:20;8.50;;;5.57;;
21018;SDS011;10667;51.056;3.732;2023-02-28T13:33:26;14.15;;;5.15;;
21018;SDS011;10667;51.056;3.732;2023-02-28T13:36:09;9.32;;;4.95;;
21018;SDS011;10667;51.056;3.732;2023-02-28T13:46:32;102.70;;;9.57;;
21018;SDS011;10667;51.056;3.732;2023-02-28T13:49:30;5.50;;;3.40;;
21018;SDS011;10667;51.056;3.732;2023-02-28T14:06:53;9.25;;;4.93;;
21018;SDS011;10667;51.056;3.732;2023-02-28T14:09:25;4.45;;;3.92;;
21018;SDS011;10667;51.056;3.732;2023-02-28T14:17:52;8.57;;;4.97;;
21018;SDS011;10667;51.056;3.732;2023-02-28T14:20:20;6.78;;;4.18;;
21018;SDS011;10667;51.056;3.732;2023-02-28T14:23:34;4.00;;;3.40;;
21018;SDS011;10667;51.056;3.732;2023-02-28T14:25:47;10.30;;;4.25;;
21018;SDS011;10667;51.056;3.732;2023-02-28T14:31:11;7.60;;;4.63;;
21018;SDS011;10667;51.056;3.732;2023-02-28T14:36:41;8.00;;;4.00;;
21018;SDS011;10667;51.056;3.732;2023-02-28T14:39:10;11.52;;;5.72;;
21018;SDS011;10667;51.056;3.732;2023-02-28T14:41:42;8.55;;;6.18;;
21018;SDS011;10667;51.056;3.732;2023-02-28T14:44:27;12.52;;;7.10;;
21018;SDS011;10667;51.056;3.732;2023-02-28T14:46:54;14.18;;;6.05;;
21018;SDS011;10667;51.056;3.732;2023-02-28T14:49:32;9.48;;;4.60;;
21018;SDS011;10667;51.056;3.732;2023-02-28T14:54:35;7.97;;;5.10;;
21018;SDS011;10667;51.056;3.732;2023-02-28T14:57:05;8.40;;;4.85;;
21018;SDS011;10667;51.056;3.732;2023-02-28T14:59:32;9.73;;;4.90;;
21018;SDS011;10667;51.056;3.732;2023-02-28T15:05:01;6.40;;;4.97;;
21018;SDS011;10667;51.056;3.732;2023-02-28T15:07:48;8.10;;;5.10;;
21018;SDS011;10667;51.056;3.732;2023-02-28T15:10:30;7.75;;;5.38;;
21018;SDS011;10667;51.056;3.732;2023-02-28T15:13:04;5.93;;;4.68;;
21018;SDS011;10667;51.056;3.732;2023-02-28T15:18:03;8.63;;;5.03;;
21018;SDS011;10667;51.056;3.732;2023-02-28T15:20:32;7.70;;;4.53;;
21018;SDS011;10667;51.056;3.732;2023-02-28T15:23:00;13.15;;;6.03;;
21018;SDS011;10667;51.056;3.732;2023-02-28T15:25:26;16.10;;;5.75;;
21018;SDS011;10667;51.056;3.732;2023-02-28T15:27:53;8.10;;;4.25;;
21018;SDS011;10667;51.056;3.732;2023-02-28T15:30:26;6.55;;;4.38;;
21018;SDS011;10667;51.056;3.732;2023-02-28T15:35:38;5.00;;;4.40;;
21018;SDS011;10667;51.056;3.732;2023-02-28T15:38:23;6.90;;;4.78;;
21018;SDS011;10667;51.056;3.732;2023-02-28T15:40:55;8.02;;;5.20;;
21018;SDS011;10667;51.056;3.732;2023-02-28T15:50:57;7.18;;;5.40;;
21018;SDS011;10667;51.056;3.732;2023-02-28T15:53:37;10.98;;;5.70;;
21018;SDS011;10667;51.056;3.732;2023-02-28T15:56:28;9.30;;;4.55;;
21018;SDS011;10667;51.056;3.732;2023-02-28T15:58:57;8.63;;;5.15;;
21018;SDS011;10667;51.056;3.732;2023-02-28T16:03:56;9.02;;;5.00;;
21018;SDS011;10667;51.056;3.732;2023-02-28T16:06:30;10.85;;;6.30;;
21018;SDS011;10667;51.056;3.732;2023-02-28T16:09:16;7.15;;;4.78;;
21018;SDS011;10667;51.056;3.732;2023-02-28T16:11:43;6.20;;;5.00;;
21018;SDS011;10667;51.056;3.732;2023-02-28T16:14:15;8.57;;;5.07;;
21018;SDS011;10667;51.056;3.732;2023-02-28T16:16:48;7.35;;;5.32;;
21018;SDS011;10667;51.056;3.732;2023-02-28T16:19:16;8.27;;;5.63;;
21018;SDS011;10667;51.056;3.732;2023-02-28T16:21:43;6.85;;;5.50;;
21018;SDS011;10667;51.056;3.732;2023-02-28T16:24:09;10.90;;;5.60;;
21018;SDS011;10667;51.056;3.732;2023-02-28T16:26:35;9.75;;;6.78;;
21018;SDS011;10667;51.056;3.732;2023-02-28T16:29:04;14.80;;;5.57;;
21018;SDS011;10667;51.056;3.732;2023-02-28T16:31:30;5.45;;;4.68;;
21018;SDS011;10667;51.056;3.732;2023-02-28T16:34:00;11.45;;;5.15;;
21018;SDS011;10667;51.056;3.732;2023-02-28T16:36:26;6.63;;;4.93;;
21018;SDS011;10667;51.056;3.732;2023-02-28T16:38:53;9.50;;;5.47;;
21018;SDS011;10667;51.056;3.732;2023-02-28T16:41:20;7.50;;;5.53;;
21018;SDS011;10667;51.056;3.732;2023-02-28T16:43:50;11.88;;;5.63;;
21018;SDS011;10667;51.056;3.732;2023-02-28T16:46:18;10.07;;;5.30;;
21018;SDS011;10667;51.056;3.732;2023-02-28T16:48:46;10.32;;;5.20;;
21018;SDS011;10667;51.056;3.732;2023-02-28T16:51:16;12.05;;;7.20;;
21018;SDS011;10667;51.056;3.732;2023-02-28T16:53:43;12.35;;;6.40;;
21018;SDS011;10667;51.056;3.732;2023-02-28T16:56:22;9.80;;;5.40;;
21018;SDS011;10667;51.056;3.732;2023-02-28T16:58:50;9.38;;;5.72;;
21018;SDS011;10667;51.056;3.732;2023-02-28T17:01:20;13.75;;;8.13;;
21018;SDS011;10667;51.056;3.732;2023-02-28T17:03:47;13.90;;;7.65;;
21018;SDS011;10667;51.056;3.732;2023-02-28T17:06:20;14.15;;;7.00;;
21018;SDS011;10667;51.056;3.732;2023-02-28T17:08:49;10.48;;;6.43;;
21018;SDS011;10667;51.056;3.732;2023-02-28T17:11:16;10.50;;;6.25;;
21018;SDS011;10667;51.056;3.732;2023-02-28T17:13:42;23.45;;;8.88;;
21018;SDS011;10667;51.056;3.732;2023-02-28T17:16:11;9.13;;;6.78;;
21018;SDS011;10667;51.056;3.732;2023-02-28T17:18:45;14.50;;;7.60;;
21018;SDS011;10667;51.056;3.732;2023-02-28T17:21:19;12.05;;;7.82;;
21018;SDS011;10667;51.056;3.732;2023-02-28T17:23:45;14.77;;;5.93;;
21018;SDS011;10667;51.056;3.732;2023-02-28T17:26:14;8.90;;;6.22;;
21018;SDS011;10667;51.056;3.732;2023-02-28T17:28:44;15.45;;;6.05;;
21018;SDS011;10667;51.056;3.732;2023-02-28T17:31:13;9.70;;;6.40;;
21018;SDS011;10667;51.056;3.732;2023-02-28T17:33:40;10.05;;;6.55;;
21018;SDS011;10667;51.056;3.732;2023-02-28T17:36:06;12.02;;;6.13;;
21018;SDS011;10667;51.056;3.732;2023-02-28T17:38:35;9.75;;;6.68;;
21018;SDS011;10667;51.056;3.732;2023-02-28T17:41:01;11.75;;;7.55;;
21018;SDS011;10667;51.056;3.732;2023-02-28T17:43:26;14.75;;;9.68;;
21018;SDS011;10667;51.056;3.732;2023-02-28T17:45:53;16.58;;;9.40;;
21018;SDS011;10667;51.056;3.732;2023-02-28T17:48:19;18.70;;;10.13;;
21018;SDS011;10667;51.056;3.732;2023-02-28T17:50:45;14.45;;;10.07;;
21018;SDS011;10667;51.056;3.732;2023-02-28T17:53:11;16.90;;;9.70;;
21018;SDS011;10667;51.056;3.732;2023-02-28T17:55:36;20.02;;;11.20;;